Time;durP1;ratioP1;P1;durP2;ratioP2;P2;SDS_P1;SDS_P2;PMS_P1;PMS_P2;Temp;Humidity;BMP_temperature;BMP_pressure;BME280_temperature;BME280_humidity;BME280_pressure;Samples;Min_cycle;Max_cycle;Signal;HPM_P1;HPM_P2
2023/07/24 00:01:32;;;;;;;1.30;1.30;;;;;;;;;;5068599;28;20210;-60
2023/07/24 00:03:59;;;;;;;1.00;1.00;;;;;;;;;;5068962;28;20669;-60
2023/07/24 00:06:26;;;;;;;1.30;1.30;;;;;;;;;;5069111;28;20233;-60
2023/07/24 00:08:53;;;;;;;1.27;1.27;;;;;;;;;;5066737;28;20202;-60
2023/07/24 00:11:21;;;;;;;1.27;1.27;;;;;;;;;;5068659;28;20809;-60
2023/07/24 00:13:48;;;;;;;1.30;1.30;;;;;;;;;;5067665;28;20215;-60
2023/07/24 00:16:15;;;;;;;1.33;1.23;;;;;;;;;;5068108;28;20223;-60
2023/07/24 00:18:42;;;;;;;1.33;1.23;;;;;;;;;;5065492;28;20192;-60
2023/07/24 00:21:10;;;;;;;0.93;0.93;;;;;;;;;;5067909;28;20211;-60
2023/07/24 00:23:37;;;;;;;0.95;0.95;;;;;;;;;;5058340;28;20218;-60
2023/07/24 00:26:04;;;;;;;1.30;1.10;;;;;;;;;;5063490;28;20303;-59
2023/07/24 00:28:33;;;;;;;1.40;1.30;;;;;;;;;;5050810;28;20748;-60
2023/07/24 00:31:00;;;;;;;1.27;1.27;;;;;;;;;;5048657;28;20212;-60
2023/07/24 00:33:27;;;;;;;1.00;1.00;;;;;;;;;;5048531;28;20215;-61
2023/07/24 00:35:57;;;;;;;0.90;0.90;;;;;;;;;;5049641;28;20216;-61
2023/07/24 00:38:24;;;;;;;1.10;1.10;;;;;;;;;;5056169;28;20318;-60
2023/07/24 00:40:51;;;;;;;0.98;0.98;;;;;;;;;;5066909;28;20242;-60
2023/07/24 00:43:18;;;;;;;1.20;1.10;;;;;;;;;;5064770;28;20227;-60
2023/07/24 00:45:48;;;;;;;1.20;1.20;;;;;;;;;;5051880;28;20229;-60
2023/07/24 00:48:15;;;;;;;1.67;1.20;;;;;;;;;;5067853;28;20203;-60
2023/07/24 00:50:43;;;;;;;1.00;1.00;;;;;;;;;;5066645;28;20203;-60
2023/07/24 00:53:10;;;;;;;1.25;1.17;;;;;;;;;;5065496;28;20207;-60
2023/07/24 00:55:37;;;;;;;1.25;1.15;;;;;;;;;;5062375;28;20213;-60
2023/07/24 00:58:05;;;;;;;1.23;1.23;;;;;;;;;;5057202;28;20234;-60
2023/07/24 01:00:32;;;;;;;1.70;1.40;;;;;;;;;;5057407;28;20587;-60
2023/07/24 01:03:01;;;;;;;1.23;1.23;;;;;;;;;;5049072;28;20204;-60
2023/07/24 01:05:28;;;;;;;1.20;1.10;;;;;;;;;;5047510;28;20849;-60
2023/07/24 01:07:55;;;;;;;1.17;1.10;;;;;;;;;;5062643;28;20199;-60
2023/07/24 01:10:22;;;;;;;1.58;1.48;;;;;;;;;;5056029;28;20262;-60
2023/07/24 01:12:53;;;;;;;4.43;1.15;;;;;;;;;;5063834;28;20214;-60
2023/07/24 01:15:24;;;;;;;1.38;1.27;;;;;;;;;;5062923;28;20198;-60
2023/07/24 01:17:53;;;;;;;1.13;1.05;;;;;;;;;;5067609;28;20242;-60
2023/07/24 01:20:22;;;;;;;0.95;0.95;;;;;;;;;;5048984;28;20850;-60
2023/07/24 01:22:55;;;;;;;1.15;1.15;;;;;;;;;;5061469;28;20210;-60
2023/07/24 01:25:29;;;;;;;1.10;1.10;;;;;;;;;;5062456;28;20668;-60
2023/07/24 01:27:57;;;;;;;2.85;0.95;;;;;;;;;;5071364;28;20218;-60
2023/07/24 01:30:24;;;;;;;1.00;1.00;;;;;;;;;;5056501;28;20199;-60
2023/07/24 01:32:51;;;;;;;1.10;1.10;;;;;;;;;;5053981;28;20657;-60
2023/07/24 01:35:18;;;;;;;1.10;1.10;;;;;;;;;;5053979;28;20203;-60
2023/07/24 01:37:46;;;;;;;1.77;1.50;;;;;;;;;;5061691;28;20238;-60
2023/07/24 01:40:14;;;;;;;1.02;1.02;;;;;;;;;;5071321;28;20210;-60
2023/07/24 01:42:41;;;;;;;3.13;1.25;;;;;;;;;;5069903;28;20245;-60
2023/07/24 01:45:11;;;;;;;1.17;1.17;;;;;;;;;;5070988;28;20207;-60
2023/07/24 01:47:38;;;;;;;1.10;1.10;;;;;;;;;;5053638;28;20230;-60
2023/07/24 01:50:05;;;;;;;0.95;0.95;;;;;;;;;;5059053;28;20207;-60
2023/07/24 01:52:32;;;;;;;1.30;1.30;;;;;;;;;;5066430;28;20258;-60
2023/07/24 01:54:59;;;;;;;1.48;1.42;;;;;;;;;;5051201;28;20650;-60
2023/07/24 01:57:26;;;;;;;1.40;1.23;;;;;;;;;;5064197;28;20227;-60
2023/07/24 01:59:53;;;;;;;1.48;1.38;;;;;;;;;;5068252;28;20269;-60
2023/07/24 02:02:22;;;;;;;1.20;1.20;;;;;;;;;;5069409;28;20226;-60
2023/07/24 02:04:49;;;;;;;1.50;1.33;;;;;;;;;;5067500;28;20556;-60
2023/07/24 02:07:16;;;;;;;2.55;1.90;;;;;;;;;;5069978;28;20218;-60
2023/07/24 02:09:43;;;;;;;1.88;1.77;;;;;;;;;;5068223;28;20206;-60
2023/07/24 02:12:10;;;;;;;2.30;1.73;;;;;;;;;;5069366;28;20684;-59
2023/07/24 02:14:37;;;;;;;2.00;1.90;;;;;;;;;;5062550;28;20207;-60
2023/07/24 02:17:04;;;;;;;3.33;1.80;;;;;;;;;;5049691;28;20231;-60
2023/07/24 02:19:32;;;;;;;1.50;1.40;;;;;;;;;;5067817;28;20243;-59
2023/07/24 02:21:59;;;;;;;2.50;1.48;;;;;;;;;;5068711;28;20207;-60
2023/07/24 02:24:26;;;;;;;1.65;1.55;;;;;;;;;;5050218;28;20226;-59
2023/07/24 02:26:54;;;;;;;2.25;1.38;;;;;;;;;;5065885;28;20211;-60
2023/07/24 02:29:22;;;;;;;1.88;1.75;;;;;;;;;;5055287;28;20196;-59
2023/07/24 02:31:49;;;;;;;1.83;1.73;;;;;;;;;;5048367;28;20207;-59
2023/07/24 02:34:16;;;;;;;2.63;1.60;;;;;;;;;;5048082;28;20215;-59
2023/07/24 02:36:44;;;;;;;2.47;1.40;;;;;;;;;;5058871;28;20206;-59
2023/07/24 02:39:11;;;;;;;2.17;1.98;;;;;;;;;;5068254;28;20211;-59
2023/07/24 02:41:38;;;;;;;1.73;1.65;;;;;;;;;;5067724;28;20210;-59
2023/07/24 02:44:06;;;;;;;3.28;2.05;;;;;;;;;;5048262;28;20231;-59
2023/07/24 02:46:33;;;;;;;2.60;2.50;;;;;;;;;;5059581;28;20207;-58
2023/07/24 02:49:00;;;;;;;2.33;2.13;;;;;;;;;;5067808;28;20206;-59
2023/07/24 02:51:27;;;;;;;2.67;2.20;;;;;;;;;;5067960;28;20211;-59
2023/07/24 02:53:56;;;;;;;1.98;1.88;;;;;;;;;;5065288;28;20273;-59
2023/07/24 02:56:23;;;;;;;2.33;2.08;;;;;;;;;;5049696;28;20219;-58
2023/07/24 02:58:50;;;;;;;1.92;1.88;;;;;;;;;;5060986;28;20702;-59
2023/07/24 03:01:17;;;;;;;2.88;2.67;;;;;;;;;;5056570;28;20310;-59
2023/07/24 03:03:44;;;;;;;2.42;2.33;;;;;;;;;;5065351;28;20208;-59
2023/07/24 03:06:11;;;;;;;3.30;2.65;;;;;;;;;;5048814;28;20671;-59
2023/07/24 03:08:38;;;;;;;2.90;2.70;;;;;;;;;;5049761;28;20773;-59
2023/07/24 03:11:07;;;;;;;3.35;2.80;;;;;;;;;;5059352;28;20202;-60
2023/07/24 03:13:34;;;;;;;2.20;2.10;;;;;;;;;;5054879;28;20203;-60
2023/07/24 03:16:01;;;;;;;2.90;2.70;;;;;;;;;;5048951;28;20242;-59
2023/07/24 03:18:28;;;;;;;2.50;2.40;;;;;;;;;;5012603;28;1038625;-62
2023/07/24 03:20:55;;;;;;;2.78;2.58;;;;;;;;;;5049836;28;20207;-59
2023/07/24 03:23:22;;;;;;;3.22;2.80;;;;;;;;;;5049073;28;20207;-59
2023/07/24 03:25:49;;;;;;;2.72;2.53;;;;;;;;;;5048701;28;20211;-59
2023/07/24 03:28:18;;;;;;;2.63;2.50;;;;;;;;;;5051360;28;20207;-59
2023/07/24 03:30:45;;;;;;;2.85;2.53;;;;;;;;;;5049288;28;20200;-59
2023/07/24 03:33:12;;;;;;;3.05;2.72;;;;;;;;;;5058445;28;20218;-60
2023/07/24 03:35:39;;;;;;;4.57;2.45;;;;;;;;;;5066491;28;20290;-59
2023/07/24 03:38:06;;;;;;;2.40;2.30;;;;;;;;;;5066292;28;20223;-59
2023/07/24 03:40:33;;;;;;;2.53;2.25;;;;;;;;;;5052983;28;20234;-59
2023/07/24 03:43:00;;;;;;;2.58;2.45;;;;;;;;;;5053102;28;20223;-59
2023/07/24 03:45:29;;;;;;;2.55;2.38;;;;;;;;;;5068309;28;20207;-59
2023/07/24 03:47:56;;;;;;;2.95;2.63;;;;;;;;;;5067708;28;20210;-61
2023/07/24 03:50:23;;;;;;;2.80;2.70;;;;;;;;;;5067196;28;20677;-64
2023/07/24 03:52:50;;;;;;;3.33;2.50;;;;;;;;;;5068861;28;20203;-59
2023/07/24 03:55:17;;;;;;;3.03;2.72;;;;;;;;;;5053502;28;20645;-60
2023/07/24 03:57:44;;;;;;;2.72;2.53;;;;;;;;;;5059049;28;20226;-59
2023/07/24 04:00:11;;;;;;;3.53;2.67;;;;;;;;;;5063292;28;20214;-62
2023/07/24 04:02:40;;;;;;;2.70;2.50;;;;;;;;;;5061912;28;20203;-62
2023/07/24 04:05:07;;;;;;;3.40;2.85;;;;;;;;;;5055713;28;20257;-59
2023/07/24 04:07:34;;;;;;;3.13;2.92;;;;;;;;;;5064755;28;20203;-60
2023/07/24 04:10:01;;;;;;;2.55;2.38;;;;;;;;;;5066487;28;20627;-59
2023/07/24 04:12:30;;;;;;;2.83;2.63;;;;;;;;;;5045267;28;20215;-61
2023/07/24 04:14:57;;;;;;;3.08;2.55;;;;;;;;;;5062047;28;20810;-59
2023/07/24 04:17:24;;;;;;;3.08;2.60;;;;;;;;;;5058030;28;20235;-60
2023/07/24 04:19:53;;;;;;;2.72;2.55;;;;;;;;;;5048387;28;20257;-59
2023/07/24 04:22:20;;;;;;;3.22;2.97;;;;;;;;;;5065175;28;20390;-59
2023/07/24 04:24:47;;;;;;;2.78;2.67;;;;;;;;;;5065749;28;20208;-59
2023/07/24 04:27:14;;;;;;;2.97;2.78;;;;;;;;;;5065787;28;20207;-59
2023/07/24 04:29:41;;;;;;;3.85;2.45;;;;;;;;;;5066699;28;20210;-59
2023/07/24 04:32:08;;;;;;;3.47;3.08;;;;;;;;;;5067059;28;20657;-59
2023/07/24 04:34:35;;;;;;;3.55;3.30;;;;;;;;;;5053203;28;20662;-58
2023/07/24 04:37:04;;;;;;;4.50;3.00;;;;;;;;;;5048791;28;20211;-59
2023/07/24 04:39:31;;;;;;;5.07;3.20;;;;;;;;;;5047527;28;20227;-59
2023/07/24 04:41:58;;;;;;;3.60;2.92;;;;;;;;;;5065480;28;20200;-59
2023/07/24 04:44:25;;;;;;;4.10;2.85;;;;;;;;;;5061784;28;20231;-59
2023/07/24 04:46:52;;;;;;;4.47;3.50;;;;;;;;;;5054185;28;20808;-59
2023/07/24 04:49:19;;;;;;;3.95;3.08;;;;;;;;;;5057990;28;20207;-59
2023/07/24 04:51:46;;;;;;;5.85;3.45;;;;;;;;;;5067331;28;20207;-59
2023/07/24 04:54:14;;;;;;;3.63;3.13;;;;;;;;;;5061597;28;20780;-58
2023/07/24 04:56:41;;;;;;;8.32;3.58;;;;;;;;;;5056798;28;20219;-60
2023/07/24 04:59:08;;;;;;;3.72;3.42;;;;;;;;;;5047878;28;20235;-60
2023/07/24 05:01:45;;;;;;;3.88;3.50;;;;;;;;;;5055951;28;20203;-61
2023/07/24 05:04:12;;;;;;;3.45;3.15;;;;;;;;;;5067596;28;20236;-60
2023/07/24 05:06:39;;;;;;;3.60;3.30;;;;;;;;;;5056437;28;20209;-60
2023/07/24 05:09:06;;;;;;;4.43;3.35;;;;;;;;;;5052986;28;20282;-60
2023/07/24 05:11:34;;;;;;;3.67;2.97;;;;;;;;;;5064508;28;20207;-60
2023/07/24 05:14:01;;;;;;;3.50;3.30;;;;;;;;;;5066870;28;20688;-60
2023/07/24 05:16:28;;;;;;;3.17;2.97;;;;;;;;;;5066528;28;20207;-60
2023/07/24 05:18:55;;;;;;;3.72;3.38;;;;;;;;;;5059428;28;20227;-60
2023/07/24 05:21:22;;;;;;;3.75;3.10;;;;;;;;;;5051532;28;20203;-60
2023/07/24 05:23:49;;;;;;;3.05;2.83;;;;;;;;;;5065244;28;20203;-60
2023/07/24 05:26:16;;;;;;;3.47;3.17;;;;;;;;;;5057793;28;20211;-61
2023/07/24 05:28:45;;;;;;;3.42;3.13;;;;;;;;;;5056726;28;20256;-61
2023/07/24 05:31:12;;;;;;;3.17;2.88;;;;;;;;;;5067776;28;20209;-61
2023/07/24 05:33:39;;;;;;;3.85;3.47;;;;;;;;;;5066838;28;20203;-61
2023/07/24 05:36:06;;;;;;;3.58;3.05;;;;;;;;;;5067500;28;20207;-61
2023/07/24 05:38:33;;;;;;;3.92;3.60;;;;;;;;;;5065770;28;20227;-62
2023/07/24 05:41:01;;;;;;;3.58;3.28;;;;;;;;;;5066710;28;20989;-62
2023/07/24 05:43:29;;;;;;;3.55;3.25;;;;;;;;;;5067408;28;20227;-61
2023/07/24 05:45:58;;;;;;;4.43;3.22;;;;;;;;;;5066547;28;20703;-61
2023/07/24 05:48:25;;;;;;;5.80;3.60;;;;;;;;;;5065091;28;20944;-61
2023/07/24 05:50:53;;;;;;;4.55;3.45;;;;;;;;;;5062505;28;20203;-61
2023/07/24 05:53:20;;;;;;;6.50;4.53;;;;;;;;;;5064787;28;20195;-61
2023/07/24 05:55:47;;;;;;;4.50;4.10;;;;;;;;;;5066515;28;20213;-61
2023/07/24 05:58:14;;;;;;;5.38;4.28;;;;;;;;;;5067242;28;20234;-61
2023/07/24 06:00:41;;;;;;;4.35;3.75;;;;;;;;;;5067085;28;20215;-60
2023/07/24 06:03:09;;;;;;;4.13;3.67;;;;;;;;;;5064977;28;20229;-60
2023/07/24 06:05:36;;;;;;;3.75;3.28;;;;;;;;;;5067037;28;20732;-60
2023/07/24 06:08:03;;;;;;;5.13;3.50;;;;;;;;;;5066110;28;20215;-60
2023/07/24 06:10:30;;;;;;;4.13;3.65;;;;;;;;;;5068510;28;20225;-60
2023/07/24 06:12:57;;;;;;;4.75;3.20;;;;;;;;;;5070189;28;20210;-60
2023/07/24 06:15:24;;;;;;;4.00;3.60;;;;;;;;;;5069875;28;20217;-60
2023/07/24 06:17:51;;;;;;;3.25;3.05;;;;;;;;;;5070267;28;20242;-60
2023/07/24 06:20:20;;;;;;;2.95;2.72;;;;;;;;;;5070446;28;20331;-60
2023/07/24 06:22:47;;;;;;;3.78;3.47;;;;;;;;;;5066692;28;20212;-60
2023/07/24 06:25:14;;;;;;;4.15;2.70;;;;;;;;;;5064110;28;20210;-60
2023/07/24 06:27:41;;;;;;;6.88;2.67;;;;;;;;;;5070324;28;20222;-60
2023/07/24 06:30:08;;;;;;;7.68;2.80;;;;;;;;;;5055767;28;20215;-61
2023/07/24 06:32:36;;;;;;;6.25;2.50;;;;;;;;;;5051509;28;20216;-60
2023/07/24 06:35:03;;;;;;;3.17;2.97;;;;;;;;;;5050098;28;20669;-60
2023/07/24 06:37:31;;;;;;;3.88;2.25;;;;;;;;;;5068402;28;20214;-61
2023/07/24 06:39:58;;;;;;;3.53;2.40;;;;;;;;;;5070198;28;20227;-61
2023/07/24 06:42:25;;;;;;;2.55;2.05;;;;;;;;;;5069353;28;20210;-61
2023/07/24 06:44:52;;;;;;;2.40;2.30;;;;;;;;;;5070013;28;20218;-61
2023/07/24 06:47:19;;;;;;;2.22;2.13;;;;;;;;;;5068123;28;20225;-60
2023/07/24 06:49:46;;;;;;;2.30;2.10;;;;;;;;;;5069040;28;20581;-61
2023/07/24 06:52:13;;;;;;;2.60;2.10;;;;;;;;;;5069171;28;20306;-61
2023/07/24 06:54:42;;;;;;;2.90;2.20;;;;;;;;;;5069246;28;20222;-60
2023/07/24 06:57:09;;;;;;;2.45;2.30;;;;;;;;;;5070193;28;20586;-61
2023/07/24 06:59:36;;;;;;;2.30;2.10;;;;;;;;;;5068483;28;20227;-59
2023/07/24 07:02:03;;;;;;;2.33;2.22;;;;;;;;;;5069792;28;20211;-62
2023/07/24 07:04:30;;;;;;;2.83;2.20;;;;;;;;;;5069576;28;20230;-60
2023/07/24 07:06:57;;;;;;;6.05;2.40;;;;;;;;;;5069586;28;20841;-63
2023/07/24 07:09:24;;;;;;;2.88;2.10;;;;;;;;;;5050425;28;20219;-63
2023/07/24 07:11:53;;;;;;;2.30;2.20;;;;;;;;;;5067461;28;20234;-64
2023/07/24 07:14:20;;;;;;;3.17;1.90;;;;;;;;;;5067490;28;20206;-63
2023/07/24 07:16:47;;;;;;;1.83;1.73;;;;;;;;;;5067525;28;20623;-63
2023/07/24 07:19:14;;;;;;;1.98;1.92;;;;;;;;;;5069242;28;20840;-64
2023/07/24 07:21:41;;;;;;;2.15;2.00;;;;;;;;;;5067841;28;20211;-64
2023/07/24 07:24:08;;;;;;;1.80;1.80;;;;;;;;;;5069129;28;20210;-63
2023/07/24 07:26:35;;;;;;;2.15;1.95;;;;;;;;;;5069220;28;20214;-63
2023/07/24 07:29:04;;;;;;;2.15;1.90;;;;;;;;;;5052053;28;20208;-63
2023/07/24 07:31:31;;;;;;;2.17;2.10;;;;;;;;;;5069532;28;20262;-63
2023/07/24 07:34:16;;;;;;;3.38;2.50;;;;;;;;;;5066735;28;20211;-63
2023/07/24 07:36:43;;;;;;;2.75;2.55;;;;;;;;;;5065292;28;20237;-64
2023/07/24 07:39:10;;;;;;;4.88;2.67;;;;;;;;;;5067904;28;20251;-63
2023/07/24 07:41:37;;;;;;;2.05;1.95;;;;;;;;;;5066793;28;20210;-64
2023/07/24 07:44:06;;;;;;;2.28;2.17;;;;;;;;;;5067739;28;20330;-64
2023/07/24 07:46:33;;;;;;;5.03;2.47;;;;;;;;;;5068818;28;20618;-64
2023/07/24 07:49:00;;;;;;;2.28;2.17;;;;;;;;;;5054860;28;20658;-63
2023/07/24 07:51:27;;;;;;;2.38;2.28;;;;;;;;;;5068471;28;20222;-63
2023/07/24 07:53:54;;;;;;;3.15;1.95;;;;;;;;;;5067845;28;20210;-64
2023/07/24 07:56:21;;;;;;;2.67;2.35;;;;;;;;;;5067443;28;20203;-64
2023/07/24 07:58:48;;;;;;;2.85;2.65;;;;;;;;;;5066720;28;20219;-64
2023/07/24 08:01:17;;;;;;;2.78;2.10;;;;;;;;;;5058887;28;20215;-64
2023/07/24 08:03:44;;;;;;;1.92;1.85;;;;;;;;;;5061715;28;20314;-64
2023/07/24 08:06:12;;;;;;;2.00;1.95;;;;;;;;;;5062931;28;20214;-65
2023/07/24 08:08:39;;;;;;;2.20;2.10;;;;;;;;;;5067191;28;20484;-64
2023/07/24 08:11:06;;;;;;;2.38;2.28;;;;;;;;;;5068319;28;20207;-64
2023/07/24 08:13:34;;;;;;;2.78;2.58;;;;;;;;;;5058494;28;20606;-63
2023/07/24 08:16:02;;;;;;;2.40;2.30;;;;;;;;;;5047783;28;20207;-77
2023/07/24 08:18:31;;;;;;;2.20;2.10;;;;;;;;;;5048868;28;20231;-64
2023/07/24 08:20:58;;;;;;;4.03;2.08;;;;;;;;;;5059033;28;20207;-65
2023/07/24 08:23:25;;;;;;;2.30;2.22;;;;;;;;;;5067586;28;20319;-63
2023/07/24 08:25:53;;;;;;;2.80;1.98;;;;;;;;;;5068268;28;20215;-63
2023/07/24 08:28:20;;;;;;;2.10;2.00;;;;;;;;;;5067943;28;20206;-64
2023/07/24 08:30:47;;;;;;;3.22;1.85;;;;;;;;;;5049499;28;20235;-62
2023/07/24 08:33:14;;;;;;;2.45;2.13;;;;;;;;;;5047749;28;20238;-63
2023/07/24 08:35:43;;;;;;;2.67;2.45;;;;;;;;;;5062527;28;20210;-63
2023/07/24 08:38:10;;;;;;;2.10;2.00;;;;;;;;;;5060078;28;20214;-63
2023/07/24 08:40:37;;;;;;;2.70;2.00;;;;;;;;;;5054176;28;20228;-63
2023/07/24 08:43:04;;;;;;;2.17;2.00;;;;;;;;;;5048134;28;20232;-63
2023/07/24 08:45:32;;;;;;;2.78;1.85;;;;;;;;;;5062105;28;20206;-63
2023/07/24 08:48:00;;;;;;;3.10;2.67;;;;;;;;;;5047134;28;20207;-63
2023/07/24 08:50:27;;;;;;;4.75;1.98;;;;;;;;;;5050174;28;20204;-63
2023/07/24 08:52:55;;;;;;;2.25;2.08;;;;;;;;;;5047364;28;20342;-63
2023/07/24 08:55:22;;;;;;;3.30;2.20;;;;;;;;;;5047305;28;20238;-63
2023/07/24 08:57:50;;;;;;;2.63;2.25;;;;;;;;;;5047308;28;20211;-63
2023/07/24 09:00:17;;;;;;;5.57;2.30;;;;;;;;;;5047105;28;20223;-63
2023/07/24 09:02:44;;;;;;;2.90;2.70;;;;;;;;;;5056294;28;20229;-63
2023/07/24 09:05:12;;;;;;;2.85;2.65;;;;;;;;;;5051920;28;20210;-63
2023/07/24 09:07:39;;;;;;;2.65;2.50;;;;;;;;;;5058390;28;20198;-63
2023/07/24 09:10:08;;;;;;;5.50;2.90;;;;;;;;;;5061342;28;20207;-63
2023/07/24 09:12:38;;;;;;;3.40;2.50;;;;;;;;;;5047507;28;20245;-63
2023/07/24 09:15:06;;;;;;;3.50;2.47;;;;;;;;;;5047828;28;20216;-63
2023/07/24 09:17:33;;;;;;;4.10;2.55;;;;;;;;;;5053422;28;20273;-63
2023/07/24 09:20:01;;;;;;;4.20;2.80;;;;;;;;;;5065750;28;20264;-63
2023/07/24 09:22:28;;;;;;;4.50;2.42;;;;;;;;;;5063871;28;20222;-63
2023/07/24 09:24:56;;;;;;;2.65;2.55;;;;;;;;;;5052053;28;20205;-64
2023/07/24 09:27:27;;;;;;;4.28;2.90;;;;;;;;;;5066721;28;20225;-64
2023/07/24 09:29:54;;;;;;;3.22;2.50;;;;;;;;;;5067148;28;20202;-71
2023/07/24 09:32:22;;;;;;;3.72;2.97;;;;;;;;;;5064293;28;20207;-64
2023/07/24 09:34:50;;;;;;;2.70;2.60;;;;;;;;;;5061178;28;20206;-64
2023/07/24 09:37:25;;;;;;;3.10;2.88;;;;;;;;;;5066362;28;20199;-63
2023/07/24 09:39:52;;;;;;;4.82;2.67;;;;;;;;;;5065700;28;20316;-63
2023/07/24 09:42:19;;;;;;;3.17;2.75;;;;;;;;;;5063083;28;20941;-63
2023/07/24 09:44:47;;;;;;;3.13;2.85;;;;;;;;;;5067741;28;20234;-64
2023/07/24 09:47:14;;;;;;;3.25;3.05;;;;;;;;;;5064907;28;20908;-64
2023/07/24 09:49:41;;;;;;;5.05;2.83;;;;;;;;;;5051555;28;20203;-63
2023/07/24 09:52:11;;;;;;;2.95;2.75;;;;;;;;;;5062630;28;20233;-64
2023/07/24 09:54:45;;;;;;;3.92;2.97;;;;;;;;;;5068477;28;20705;-64
2023/07/24 09:57:12;;;;;;;3.13;2.85;;;;;;;;;;5056249;28;20212;-63
2023/07/24 09:59:40;;;;;;;3.67;3.35;;;;;;;;;;5056822;28;20234;-63
2023/07/24 10:02:10;;;;;;;6.90;3.42;;;;;;;;;;5060434;28;20295;-63
2023/07/24 10:04:38;;;;;;;3.72;3.33;;;;;;;;;;5065557;28;20207;-63
2023/07/24 10:07:05;;;;;;;4.47;2.92;;;;;;;;;;5070664;28;20283;-63
2023/07/24 10:09:33;;;;;;;3.13;2.83;;;;;;;;;;5070313;28;20210;-63
2023/07/24 10:12:00;;;;;;;2.67;2.45;;;;;;;;;;5069737;28;20214;-62
2023/07/24 10:14:28;;;;;;;3.03;2.78;;;;;;;;;;5068719;28;20268;-63
2023/07/24 10:16:57;;;;;;;2.50;2.30;;;;;;;;;;5070208;28;20235;-63
2023/07/24 10:19:25;;;;;;;2.15;2.05;;;;;;;;;;5068552;28;20229;-63
2023/07/24 10:21:52;;;;;;;2.88;2.30;;;;;;;;;;5060452;28;20211;-63
2023/07/24 10:24:23;;;;;;;2.25;2.15;;;;;;;;;;5061581;28;20203;-63
2023/07/24 10:26:50;;;;;;;2.20;2.10;;;;;;;;;;5068488;28;20215;-63
2023/07/24 10:29:19;;;;;;;2.05;1.95;;;;;;;;;;5052186;28;20211;-63
2023/07/24 10:31:53;;;;;;;3.88;2.08;;;;;;;;;;5056778;28;20238;-62
2023/07/24 10:34:21;;;;;;;2.30;2.10;;;;;;;;;;5053877;28;20741;-63
2023/07/24 10:36:49;;;;;;;2.22;2.03;;;;;;;;;;5047961;28;20923;-63
2023/07/24 10:39:18;;;;;;;3.08;2.13;;;;;;;;;;5049723;28;20207;-63
2023/07/24 10:41:46;;;;;;;2.20;2.00;;;;;;;;;;5050143;28;20223;-63
2023/07/24 10:44:13;;;;;;;2.22;2.03;;;;;;;;;;5066150;28;20965;-63
2023/07/24 10:46:40;;;;;;;2.90;2.53;;;;;;;;;;5066730;28;20219;-63
2023/07/24 10:49:08;;;;;;;2.40;2.30;;;;;;;;;;5048954;28;20207;-62
2023/07/24 10:51:37;;;;;;;2.40;2.28;;;;;;;;;;5051596;28;20207;-63
2023/07/24 10:54:06;;;;;;;3.00;2.70;;;;;;;;;;5069778;28;20306;-62
2023/07/24 10:56:33;;;;;;;2.15;2.10;;;;;;;;;;5069098;28;20297;-62
2023/07/24 10:59:04;;;;;;;2.45;2.35;;;;;;;;;;5069489;28;20211;-64
2023/07/24 11:01:33;;;;;;;2.40;2.30;;;;;;;;;;5069056;28;20258;-62
2023/07/24 11:04:00;;;;;;;2.40;2.20;;;;;;;;;;5068552;28;20272;-62
2023/07/24 11:06:27;;;;;;;2.60;2.40;;;;;;;;;;5059964;28;20220;-60
2023/07/24 11:08:56;;;;;;;2.67;2.47;;;;;;;;;;5064147;28;20215;-60
2023/07/24 11:11:28;;;;;;;2.58;2.42;;;;;;;;;;5057904;28;20210;-61
2023/07/24 11:13:56;;;;;;;3.15;2.42;;;;;;;;;;5068403;28;20223;-60
2023/07/24 11:16:23;;;;;;;2.47;2.38;;;;;;;;;;5068212;28;20210;-61
2023/07/24 11:18:52;;;;;;;2.40;2.30;;;;;;;;;;5061868;28;20218;-61
2023/07/24 11:21:19;;;;;;;2.45;2.35;;;;;;;;;;5057119;28;20220;-59
2023/07/24 11:23:47;;;;;;;2.33;2.22;;;;;;;;;;5053490;28;20211;-60
2023/07/24 11:26:15;;;;;;;2.55;2.35;;;;;;;;;;5059925;28;20203;-59
2023/07/24 11:28:44;;;;;;;2.50;2.40;;;;;;;;;;5048589;28;20239;-59
2023/07/24 11:31:11;;;;;;;2.65;2.53;;;;;;;;;;5053920;28;20252;-60
2023/07/24 11:33:39;;;;;;;3.08;2.80;;;;;;;;;;5048473;28;20294;-60
2023/07/24 11:36:06;;;;;;;2.50;2.30;;;;;;;;;;5053492;28;20214;-60
2023/07/24 11:38:33;;;;;;;2.70;2.60;;;;;;;;;;5067826;28;20586;-60
2023/07/24 11:41:00;;;;;;;2.47;2.28;;;;;;;;;;5056939;28;20220;-61
2023/07/24 11:43:27;;;;;;;2.20;2.10;;;;;;;;;;5048433;28;20235;-61
2023/07/24 11:45:56;;;;;;;5.35;2.70;;;;;;;;;;5051815;28;20203;-62
2023/07/24 11:48:24;;;;;;;2.30;2.20;;;;;;;;;;5057243;28;20203;-61
2023/07/24 11:50:54;;;;;;;2.00;2.00;;;;;;;;;;5066606;28;20199;-62
2023/07/24 11:53:22;;;;;;;2.72;2.53;;;;;;;;;;5068442;28;20210;-60
2023/07/24 11:55:49;;;;;;;2.70;2.50;;;;;;;;;;5059441;28;20210;-60
2023/07/24 11:58:17;;;;;;;3.65;2.13;;;;;;;;;;5061360;28;20684;-60
2023/07/24 12:00:44;;;;;;;2.53;2.40;;;;;;;;;;5061288;28;20233;-68
2023/07/24 12:03:13;;;;;;;5.18;2.72;;;;;;;;;;5049371;28;20218;-62
2023/07/24 12:05:40;;;;;;;2.78;2.58;;;;;;;;;;5059195;28;20203;-60
2023/07/24 12:08:07;;;;;;;2.80;2.60;;;;;;;;;;5053548;28;20238;-61
2023/07/24 12:10:37;;;;;;;2.60;2.40;;;;;;;;;;5048963;28;20200;-61
2023/07/24 12:13:04;;;;;;;2.55;2.40;;;;;;;;;;5057968;28;20211;-61
2023/07/24 12:15:32;;;;;;;2.20;2.10;;;;;;;;;;5049061;28;20222;-61
2023/07/24 12:18:00;;;;;;;2.05;1.95;;;;;;;;;;5064852;28;20318;-61
2023/07/24 12:20:29;;;;;;;2.70;2.58;;;;;;;;;;5053884;28;20305;-62
2023/07/24 12:22:56;;;;;;;2.65;2.45;;;;;;;;;;5050442;28;20307;-62
2023/07/24 12:25:23;;;;;;;2.42;2.22;;;;;;;;;;5055008;28;20203;-61
2023/07/24 12:27:50;;;;;;;2.80;2.60;;;;;;;;;;5052196;28;20720;-63
2023/07/24 12:30:18;;;;;;;2.33;2.17;;;;;;;;;;5051909;28;20204;-62
2023/07/24 12:32:45;;;;;;;2.85;2.22;;;;;;;;;;5067504;28;20759;-62
2023/07/24 12:35:12;;;;;;;2.30;2.10;;;;;;;;;;5064323;28;20207;-62
2023/07/24 12:37:41;;;;;;;2.65;2.50;;;;;;;;;;5062798;28;20207;-62
2023/07/24 12:40:09;;;;;;;2.20;2.10;;;;;;;;;;5063494;28;20629;-62
2023/07/24 12:42:36;;;;;;;2.33;2.22;;;;;;;;;;5067306;28;20234;-62
2023/07/24 12:45:03;;;;;;;2.47;2.38;;;;;;;;;;5067341;28;20219;-63
2023/07/24 12:47:30;;;;;;;1.90;1.90;;;;;;;;;;5063343;28;20311;-62
2023/07/24 12:49:58;;;;;;;2.25;2.15;;;;;;;;;;5047383;28;20223;-62
2023/07/24 12:52:25;;;;;;;2.38;2.17;;;;;;;;;;5059583;28;20214;-62
2023/07/24 12:54:54;;;;;;;1.90;1.90;;;;;;;;;;5067322;28;20213;-63
2023/07/24 12:57:21;;;;;;;2.20;2.10;;;;;;;;;;5067597;28;20203;-63
2023/07/24 12:59:48;;;;;;;2.10;2.00;;;;;;;;;;5066621;28;20211;-64
2023/07/24 13:02:15;;;;;;;2.50;2.30;;;;;;;;;;5067277;28;20262;-63
2023/07/24 13:04:43;;;;;;;1.83;1.83;;;;;;;;;;5067093;28;20720;-63
2023/07/24 13:07:10;;;;;;;2.67;2.50;;;;;;;;;;5066657;28;20670;-63
2023/07/24 13:09:37;;;;;;;2.30;2.13;;;;;;;;;;5067436;28;20215;-63
2023/07/24 13:12:06;;;;;;;3.92;2.30;;;;;;;;;;5066399;28;20199;-63
2023/07/24 13:14:33;;;;;;;3.17;2.88;;;;;;;;;;5058999;28;20199;-62
2023/07/24 13:17:00;;;;;;;2.40;2.20;;;;;;;;;;5055129;28;20238;-63
2023/07/24 13:19:27;;;;;;;2.35;2.28;;;;;;;;;;5058125;28;20211;-62
2023/07/24 13:21:54;;;;;;;2.55;2.35;;;;;;;;;;5055953;28;20242;-63
2023/07/24 13:24:21;;;;;;;2.50;2.40;;;;;;;;;;5062584;28;20207;-62
2023/07/24 13:26:49;;;;;;;2.53;2.42;;;;;;;;;;5057185;28;20210;-63
2023/07/24 13:29:17;;;;;;;2.47;2.28;;;;;;;;;;5057694;28;20736;-62
2023/07/24 13:31:44;;;;;;;3.60;2.17;;;;;;;;;;5062747;28;20207;-63
2023/07/24 13:34:11;;;;;;;2.42;2.28;;;;;;;;;;5050833;28;20237;-63
2023/07/24 13:36:38;;;;;;;2.58;2.38;;;;;;;;;;5059300;28;20211;-63
2023/07/24 13:39:06;;;;;;;6.50;2.15;;;;;;;;;;5065749;28;20217;-63
2023/07/24 13:41:33;;;;;;;2.33;1.95;;;;;;;;;;5069484;28;20230;-62
2023/07/24 13:44:00;;;;;;;3.83;2.45;;;;;;;;;;5067927;28;20620;-63
2023/07/24 13:46:28;;;;;;;2.88;2.50;;;;;;;;;;5070121;28;20229;-61
2023/07/24 13:48:55;;;;;;;2.80;2.60;;;;;;;;;;5070446;28;20704;-62
2023/07/24 13:51:22;;;;;;;2.92;2.70;;;;;;;;;;5056753;28;20204;-62
2023/07/24 13:53:51;;;;;;;3.10;2.80;;;;;;;;;;5067322;28;20203;-63
2023/07/24 13:56:19;;;;;;;2.90;2.60;;;;;;;;;;5063993;28;20199;-62
2023/07/24 13:58:46;;;;;;;4.30;2.85;;;;;;;;;;5049907;28;20208;-62
2023/07/24 14:01:13;;;;;;;4.60;2.75;;;;;;;;;;5059684;28;20237;-62
2023/07/24 14:03:41;;;;;;;3.10;2.90;;;;;;;;;;5054972;28;20207;-63
2023/07/24 14:06:08;;;;;;;4.63;3.00;;;;;;;;;;5059240;28;20712;-63
2023/07/24 14:08:35;;;;;;;4.00;2.85;;;;;;;;;;5051641;28;20558;-63
2023/07/24 14:11:03;;;;;;;7.20;3.25;;;;;;;;;;5049086;28;20203;-63
2023/07/24 14:13:30;;;;;;;3.10;2.90;;;;;;;;;;5057929;28;20237;-63
2023/07/24 14:15:57;;;;;;;3.03;2.83;;;;;;;;;;5049055;28;20222;-63
2023/07/24 14:18:24;;;;;;;3.10;2.90;;;;;;;;;;5066155;28;20238;-63
2023/07/24 14:20:55;;;;;;;3.50;3.20;;;;;;;;;;5069619;28;20235;-63
2023/07/24 14:23:22;;;;;;;3.05;2.85;;;;;;;;;;5066297;28;20295;-63
2023/07/24 14:25:49;;;;;;;2.95;2.75;;;;;;;;;;5061037;28;20499;-63
2023/07/24 14:28:16;;;;;;;3.03;2.80;;;;;;;;;;5049718;28;20207;-63
2023/07/24 14:30:43;;;;;;;2.85;2.40;;;;;;;;;;5053026;28;20219;-63
2023/07/24 14:33:10;;;;;;;2.88;2.67;;;;;;;;;;5063072;28;20210;-63
2023/07/24 14:35:37;;;;;;;2.17;2.08;;;;;;;;;;5069562;28;20215;-64
2023/07/24 14:38:06;;;;;;;2.47;2.30;;;;;;;;;;5061607;28;20280;-64
2023/07/24 14:40:33;;;;;;;2.15;2.05;;;;;;;;;;5068579;28;20226;-64
2023/07/24 14:43:00;;;;;;;2.80;2.10;;;;;;;;;;5069334;28;20238;-64
2023/07/24 14:45:27;;;;;;;2.63;2.10;;;;;;;;;;5055356;28;20215;-64